Terminal Aerodrome Forecast
Issued by NWS Knoxville/Tri Cities, TN

Home | Current Version | Previous Version | Text Only | Print | Product List | Glossary On
Versions: 1 2 3 4 5 6 7 8 9 10 11 12 13 14 15
000
FTUS44 KMRX 241122
TAFCHA
TAF
KCHA 241122Z 2412/2512 21004KT P6SM SKC
     FM241700 17008KT P6SM FEW060
     FM250100 19004KT P6SM SCT050 BKN150
     FM250800 20006KT P6SM -RA SCT024 OVC035=

USA.gov is the U.S. government's official web portal to all federal, state and local government web resources and services.